sensor_id;sensor_type;location;lat;lon;timestamp;P1;durP1;ratioP1;P2;durP2;ratioP2
38611;SDS011;24368;52.156;20.788;2023-01-15T00:03:21;10.70;;;8.00;;
38611;SDS011;24368;52.156;20.788;2023-01-15T00:08:22;10.90;;;8.50;;
38611;SDS011;24368;52.156;20.788;2023-01-15T00:13:24;10.90;;;8.60;;
38611;SDS011;24368;52.156;20.788;2023-01-15T00:18:26;15.90;;;9.40;;
38611;SDS011;24368;52.156;20.788;2023-01-15T00:23:27;12.10;;;8.60;;
38611;SDS011;24368;52.156;20.788;2023-01-15T00:28:48;12.70;;;10.20;;
38611;SDS011;24368;52.156;20.788;2023-01-15T00:33:50;11.10;;;8.00;;
38611;SDS011;24368;52.156;20.788;2023-01-15T00:38:51;13.50;;;8.50;;
38611;SDS011;24368;52.156;20.788;2023-01-15T00:43:53;13.60;;;9.50;;
38611;SDS011;24368;52.156;20.788;2023-01-15T00:48:55;12.20;;;9.20;;
38611;SDS011;24368;52.156;20.788;2023-01-15T00:53:57;11.50;;;8.60;;
38611;SDS011;24368;52.156;20.788;2023-01-15T00:59:00;13.40;;;9.40;;
38611;SDS011;24368;52.156;20.788;2023-01-15T01:04:03;13.40;;;9.30;;
38611;SDS011;24368;52.156;20.788;2023-01-15T01:09:05;13.20;;;9.00;;
38611;SDS011;24368;52.156;20.788;2023-01-15T01:14:08;13.20;;;9.10;;
38611;SDS011;24368;52.156;20.788;2023-01-15T01:19:21;11.40;;;8.70;;
38611;SDS011;24368;52.156;20.788;2023-01-15T01:24:24;11.00;;;8.90;;
38611;SDS011;24368;52.156;20.788;2023-01-15T01:29:26;10.10;;;7.90;;
38611;SDS011;24368;52.156;20.788;2023-01-15T01:34:27;10.20;;;8.60;;
38611;SDS011;24368;52.156;20.788;2023-01-15T01:39:29;10.30;;;8.60;;
38611;SDS011;24368;52.156;20.788;2023-01-15T01:49:33;9.60;;;8.10;;
38611;SDS011;24368;52.156;20.788;2023-01-15T01:54:36;9.20;;;7.00;;
38611;SDS011;24368;52.156;20.788;2023-01-15T01:59:39;10.90;;;7.10;;
38611;SDS011;24368;52.156;20.788;2023-01-15T02:04:41;10.30;;;8.00;;
38611;SDS011;24368;52.156;20.788;2023-01-15T02:09:43;9.90;;;7.50;;
38611;SDS011;24368;52.156;20.788;2023-01-15T02:20:24;8.70;;;6.60;;
38611;SDS011;24368;52.156;20.788;2023-01-15T02:25:38;8.80;;;6.70;;
38611;SDS011;24368;52.156;20.788;2023-01-15T02:31:05;7.60;;;6.10;;
38611;SDS011;24368;52.156;20.788;2023-01-15T02:36:13;7.50;;;6.00;;
38611;SDS011;24368;52.156;20.788;2023-01-15T02:41:19;8.90;;;6.70;;
38611;SDS011;24368;52.156;20.788;2023-01-15T02:46:27;8.10;;;6.00;;
38611;SDS011;24368;52.156;20.788;2023-01-15T02:52:18;7.70;;;5.60;;
38611;SDS011;24368;52.156;20.788;2023-01-15T02:57:03;7.90;;;6.30;;
38611;SDS011;24368;52.156;20.788;2023-01-15T03:02:06;7.00;;;5.70;;
38611;SDS011;24368;52.156;20.788;2023-01-15T03:12:26;7.20;;;5.70;;
38611;SDS011;24368;52.156;20.788;2023-01-15T03:18:03;7.30;;;5.90;;
38611;SDS011;24368;52.156;20.788;2023-01-15T03:23:10;7.30;;;5.90;;
38611;SDS011;24368;52.156;20.788;2023-01-15T03:28:20;7.60;;;6.00;;
38611;SDS011;24368;52.156;20.788;2023-01-15T03:33:25;7.20;;;5.50;;
38611;SDS011;24368;52.156;20.788;2023-01-15T03:38:30;8.30;;;5.80;;
38611;SDS011;24368;52.156;20.788;2023-01-15T03:54:10;8.50;;;6.20;;
38611;SDS011;24368;52.156;20.788;2023-01-15T03:59:22;7.80;;;5.90;;
38611;SDS011;24368;52.156;20.788;2023-01-15T04:04:35;7.90;;;6.20;;
38611;SDS011;24368;52.156;20.788;2023-01-15T04:09:38;9.10;;;5.70;;
38611;SDS011;24368;52.156;20.788;2023-01-15T04:14:41;8.40;;;6.00;;
38611;SDS011;24368;52.156;20.788;2023-01-15T04:19:42;7.00;;;6.00;;
38611;SDS011;24368;52.156;20.788;2023-01-15T04:24:44;7.30;;;5.70;;
38611;SDS011;24368;52.156;20.788;2023-01-15T04:29:46;7.20;;;5.60;;
38611;SDS011;24368;52.156;20.788;2023-01-15T04:34:48;7.90;;;5.30;;
38611;SDS011;24368;52.156;20.788;2023-01-15T04:39:50;6.10;;;5.00;;
38611;SDS011;24368;52.156;20.788;2023-01-15T04:44:52;7.90;;;5.20;;
38611;SDS011;24368;52.156;20.788;2023-01-15T04:49:54;7.10;;;5.70;;
38611;SDS011;24368;52.156;20.788;2023-01-15T04:54:55;6.70;;;5.00;;
38611;SDS011;24368;52.156;20.788;2023-01-15T04:59:57;5.80;;;4.30;;
38611;SDS011;24368;52.156;20.788;2023-01-15T05:04:59;6.00;;;4.70;;
38611;SDS011;24368;52.156;20.788;2023-01-15T05:10:00;6.30;;;4.60;;
38611;SDS011;24368;52.156;20.788;2023-01-15T05:15:02;5.90;;;4.70;;
38611;SDS011;24368;52.156;20.788;2023-01-15T05:20:04;4.10;;;3.30;;
38611;SDS011;24368;52.156;20.788;2023-01-15T05:25:07;4.20;;;3.40;;
38611;SDS011;24368;52.156;20.788;2023-01-15T05:30:09;5.30;;;3.50;;
38611;SDS011;24368;52.156;20.788;2023-01-15T05:35:15;4.40;;;3.50;;
38611;SDS011;24368;52.156;20.788;2023-01-15T05:40:16;5.10;;;3.90;;
38611;SDS011;24368;52.156;20.788;2023-01-15T05:45:18;3.50;;;3.00;;
38611;SDS011;24368;52.156;20.788;2023-01-15T05:50:20;3.80;;;3.30;;
38611;SDS011;24368;52.156;20.788;2023-01-15T05:55:21;5.10;;;3.30;;
38611;SDS011;24368;52.156;20.788;2023-01-15T06:00:23;4.50;;;3.30;;
38611;SDS011;24368;52.156;20.788;2023-01-15T06:05:26;3.90;;;3.20;;
38611;SDS011;24368;52.156;20.788;2023-01-15T06:10:27;3.80;;;3.10;;
38611;SDS011;24368;52.156;20.788;2023-01-15T06:15:29;4.20;;;3.30;;
38611;SDS011;24368;52.156;20.788;2023-01-15T06:20:34;4.60;;;2.80;;
38611;SDS011;24368;52.156;20.788;2023-01-15T06:25:40;3.70;;;2.70;;
38611;SDS011;24368;52.156;20.788;2023-01-15T06:30:42;3.50;;;2.40;;
38611;SDS011;24368;52.156;20.788;2023-01-15T06:35:43;5.30;;;3.30;;
38611;SDS011;24368;52.156;20.788;2023-01-15T06:40:45;2.50;;;2.00;;
38611;SDS011;24368;52.156;20.788;2023-01-15T06:45:47;5.20;;;2.80;;
38611;SDS011;24368;52.156;20.788;2023-01-15T06:51:12;3.90;;;2.80;;
38611;SDS011;24368;52.156;20.788;2023-01-15T06:56:15;2.80;;;2.10;;
38611;SDS011;24368;52.156;20.788;2023-01-15T07:01:18;3.30;;;2.50;;
38611;SDS011;24368;52.156;20.788;2023-01-15T07:06:19;2.10;;;1.90;;
38611;SDS011;24368;52.156;20.788;2023-01-15T07:11:21;3.20;;;2.50;;
38611;SDS011;24368;52.156;20.788;2023-01-15T07:16:23;3.00;;;2.60;;
38611;SDS011;24368;52.156;20.788;2023-01-15T07:21:28;3.00;;;2.60;;
38611;SDS011;24368;52.156;20.788;2023-01-15T07:26:30;3.60;;;3.20;;
38611;SDS011;24368;52.156;20.788;2023-01-15T07:31:32;4.60;;;3.10;;
38611;SDS011;24368;52.156;20.788;2023-01-15T07:36:34;3.60;;;2.70;;
38611;SDS011;24368;52.156;20.788;2023-01-15T07:41:37;4.20;;;3.20;;
38611;SDS011;24368;52.156;20.788;2023-01-15T07:46:57;3.40;;;2.80;;
38611;SDS011;24368;52.156;20.788;2023-01-15T07:52:19;5.00;;;3.80;;
38611;SDS011;24368;52.156;20.788;2023-01-15T07:57:22;5.50;;;3.30;;
38611;SDS011;24368;52.156;20.788;2023-01-15T08:02:24;4.40;;;3.10;;
38611;SDS011;24368;52.156;20.788;2023-01-15T08:07:26;3.60;;;3.20;;
38611;SDS011;24368;52.156;20.788;2023-01-15T08:12:29;3.80;;;3.30;;
38611;SDS011;24368;52.156;20.788;2023-01-15T08:17:50;2.90;;;2.60;;
38611;SDS011;24368;52.156;20.788;2023-01-15T08:22:52;4.70;;;3.90;;
38611;SDS011;24368;52.156;20.788;2023-01-15T08:27:54;3.20;;;2.90;;
38611;SDS011;24368;52.156;20.788;2023-01-15T08:33:00;3.40;;;2.80;;
38611;SDS011;24368;52.156;20.788;2023-01-15T08:38:06;4.30;;;3.40;;
38611;SDS011;24368;52.156;20.788;2023-01-15T08:43:09;4.60;;;4.10;;
38611;SDS011;24368;52.156;20.788;2023-01-15T08:48:10;4.70;;;2.70;;
38611;SDS011;24368;52.156;20.788;2023-01-15T08:53:12;3.30;;;2.90;;
38611;SDS011;24368;52.156;20.788;2023-01-15T08:58:14;2.90;;;2.40;;
38611;SDS011;24368;52.156;20.788;2023-01-15T09:03:16;2.50;;;2.30;;
38611;SDS011;24368;52.156;20.788;2023-01-15T09:08:18;3.20;;;2.40;;
38611;SDS011;24368;52.156;20.788;2023-01-15T09:13:20;2.90;;;2.60;;
38611;SDS011;24368;52.156;20.788;2023-01-15T09:18:21;5.00;;;3.30;;
38611;SDS011;24368;52.156;20.788;2023-01-15T09:23:24;4.10;;;2.70;;
38611;SDS011;24368;52.156;20.788;2023-01-15T09:28:28;2.50;;;2.30;;
38611;SDS011;24368;52.156;20.788;2023-01-15T09:33:30;2.50;;;1.80;;
38611;SDS011;24368;52.156;20.788;2023-01-15T09:38:32;3.80;;;2.40;;
38611;SDS011;24368;52.156;20.788;2023-01-15T09:43:45;2.50;;;2.00;;
38611;SDS011;24368;52.156;20.788;2023-01-15T09:49:08;4.10;;;2.00;;
38611;SDS011;24368;52.156;20.788;2023-01-15T09:54:51;4.50;;;2.30;;
38611;SDS011;24368;52.156;20.788;2023-01-15T10:00:00;4.70;;;2.40;;
38611;SDS011;24368;52.156;20.788;2023-01-15T10:10:31;3.00;;;2.30;;
38611;SDS011;24368;52.156;20.788;2023-01-15T10:15:43;3.70;;;3.00;;
38611;SDS011;24368;52.156;20.788;2023-01-15T10:36:45;2.90;;;2.10;;
38611;SDS011;24368;52.156;20.788;2023-01-15T10:47:34;3.20;;;2.70;;
38611;SDS011;24368;52.156;20.788;2023-01-15T10:52:38;3.30;;;2.60;;
38611;SDS011;24368;52.156;20.788;2023-01-15T10:57:52;2.50;;;2.10;;
38611;SDS011;24368;52.156;20.788;2023-01-15T11:08:21;4.10;;;2.40;;
38611;SDS011;24368;52.156;20.788;2023-01-15T11:13:33;3.80;;;2.60;;
38611;SDS011;24368;52.156;20.788;2023-01-15T11:18:53;4.00;;;2.80;;
38611;SDS011;24368;52.156;20.788;2023-01-15T11:24:15;4.40;;;2.80;;
38611;SDS011;24368;52.156;20.788;2023-01-15T11:29:40;3.30;;;2.60;;
38611;SDS011;24368;52.156;20.788;2023-01-15T11:34:40;3.30;;;2.30;;
38611;SDS011;24368;52.156;20.788;2023-01-15T11:39:41;3.60;;;2.80;;
38611;SDS011;24368;52.156;20.788;2023-01-15T11:44:54;3.50;;;2.60;;
38611;SDS011;24368;52.156;20.788;2023-01-15T11:50:17;2.80;;;2.60;;
38611;SDS011;24368;52.156;20.788;2023-01-15T11:55:38;4.60;;;3.00;;
38611;SDS011;24368;52.156;20.788;2023-01-15T12:00:41;3.80;;;3.40;;
38611;SDS011;24368;52.156;20.788;2023-01-15T12:05:58;2.90;;;2.50;;
38611;SDS011;24368;52.156;20.788;2023-01-15T12:11:18;3.00;;;2.40;;
38611;SDS011;24368;52.156;20.788;2023-01-15T12:22:00;3.60;;;2.70;;
38611;SDS011;24368;52.156;20.788;2023-01-15T12:27:49;3.30;;;2.90;;
38611;SDS011;24368;52.156;20.788;2023-01-15T12:32:51;5.00;;;2.90;;
38611;SDS011;24368;52.156;20.788;2023-01-15T12:38:21;3.90;;;3.40;;
38611;SDS011;24368;52.156;20.788;2023-01-15T12:43:24;5.00;;;2.90;;
38611;SDS011;24368;52.156;20.788;2023-01-15T12:48:50;3.90;;;3.30;;
38611;SDS011;24368;52.156;20.788;2023-01-15T12:53:56;3.40;;;2.90;;
38611;SDS011;24368;52.156;20.788;2023-01-15T13:04:36;4.80;;;3.50;;
38611;SDS011;24368;52.156;20.788;2023-01-15T13:15:11;3.90;;;3.30;;
38611;SDS011;24368;52.156;20.788;2023-01-15T13:25:53;4.60;;;3.70;;
38611;SDS011;24368;52.156;20.788;2023-01-15T13:36:41;4.10;;;3.00;;
38611;SDS011;24368;52.156;20.788;2023-01-15T13:41:50;3.60;;;3.00;;
38611;SDS011;24368;52.156;20.788;2023-01-15T13:47:16;5.80;;;3.60;;
38611;SDS011;24368;52.156;20.788;2023-01-15T13:52:32;3.80;;;3.30;;
38611;SDS011;24368;52.156;20.788;2023-01-15T13:57:37;5.40;;;3.90;;
38611;SDS011;24368;52.156;20.788;2023-01-15T14:02:49;5.30;;;3.50;;
38611;SDS011;24368;52.156;20.788;2023-01-15T14:07:53;4.90;;;3.60;;
38611;SDS011;24368;52.156;20.788;2023-01-15T14:28:58;5.50;;;3.90;;
38611;SDS011;24368;52.156;20.788;2023-01-15T14:39:24;4.80;;;3.50;;
38611;SDS011;24368;52.156;20.788;2023-01-15T14:44:28;6.10;;;3.70;;
38611;SDS011;24368;52.156;20.788;2023-01-15T14:49:41;6.20;;;5.10;;
38611;SDS011;24368;52.156;20.788;2023-01-15T14:54:50;6.20;;;4.60;;
38611;SDS011;24368;52.156;20.788;2023-01-15T14:59:56;6.20;;;4.10;;
38611;SDS011;24368;52.156;20.788;2023-01-15T15:05:01;7.90;;;4.90;;
38611;SDS011;24368;52.156;20.788;2023-01-15T15:21:00;5.90;;;4.30;;
38611;SDS011;24368;52.156;20.788;2023-01-15T15:31:36;6.60;;;4.20;;
38611;SDS011;24368;52.156;20.788;2023-01-15T15:36:40;6.60;;;4.70;;
38611;SDS011;24368;52.156;20.788;2023-01-15T15:41:46;5.60;;;4.20;;
38611;SDS011;24368;52.156;20.788;2023-01-15T15:47:34;7.30;;;4.40;;
38611;SDS011;24368;52.156;20.788;2023-01-15T15:52:58;6.20;;;4.30;;
38611;SDS011;24368;52.156;20.788;2023-01-15T15:58:04;5.90;;;4.30;;
38611;SDS011;24368;52.156;20.788;2023-01-15T16:03:22;6.00;;;4.30;;
38611;SDS011;24368;52.156;20.788;2023-01-15T16:08:29;5.90;;;4.50;;
38611;SDS011;24368;52.156;20.788;2023-01-15T16:13:34;6.50;;;4.60;;
38611;SDS011;24368;52.156;20.788;2023-01-15T16:18:41;6.70;;;5.00;;
38611;SDS011;24368;52.156;20.788;2023-01-15T16:23:56;7.70;;;5.10;;
38611;SDS011;24368;52.156;20.788;2023-01-15T16:29:01;6.10;;;4.60;;
38611;SDS011;24368;52.156;20.788;2023-01-15T16:34:10;7.10;;;4.70;;
38611;SDS011;24368;52.156;20.788;2023-01-15T16:39:22;6.60;;;4.90;;
38611;SDS011;24368;52.156;20.788;2023-01-15T16:50:27;7.90;;;5.60;;
38611;SDS011;24368;52.156;20.788;2023-01-15T16:55:42;6.50;;;5.20;;
38611;SDS011;24368;52.156;20.788;2023-01-15T17:00:46;9.20;;;6.70;;
38611;SDS011;24368;52.156;20.788;2023-01-15T17:05:55;6.50;;;5.60;;
38611;SDS011;24368;52.156;20.788;2023-01-15T17:11:00;7.60;;;6.10;;
38611;SDS011;24368;52.156;20.788;2023-01-15T17:21:22;8.80;;;6.60;;
38611;SDS011;24368;52.156;20.788;2023-01-15T17:26:29;7.10;;;5.90;;
38611;SDS011;24368;52.156;20.788;2023-01-15T17:31:31;9.40;;;7.00;;
38611;SDS011;24368;52.156;20.788;2023-01-15T17:36:34;11.00;;;7.50;;
38611;SDS011;24368;52.156;20.788;2023-01-15T17:41:36;11.70;;;6.60;;
38611;SDS011;24368;52.156;20.788;2023-01-15T17:46:38;8.80;;;6.30;;
38611;SDS011;24368;52.156;20.788;2023-01-15T17:51:40;10.30;;;7.70;;
38611;SDS011;24368;52.156;20.788;2023-01-15T17:56:43;9.60;;;7.30;;
38611;SDS011;24368;52.156;20.788;2023-01-15T18:02:03;10.30;;;7.00;;
38611;SDS011;24368;52.156;20.788;2023-01-15T18:07:30;12.20;;;7.80;;
38611;SDS011;24368;52.156;20.788;2023-01-15T18:12:37;8.70;;;6.60;;
38611;SDS011;24368;52.156;20.788;2023-01-15T18:17:39;8.50;;;7.00;;
38611;SDS011;24368;52.156;20.788;2023-01-15T18:22:41;8.50;;;7.30;;
38611;SDS011;24368;52.156;20.788;2023-01-15T18:27:42;10.60;;;8.10;;
38611;SDS011;24368;52.156;20.788;2023-01-15T18:32:44;10.80;;;7.50;;
38611;SDS011;24368;52.156;20.788;2023-01-15T18:37:46;8.40;;;6.90;;
38611;SDS011;24368;52.156;20.788;2023-01-15T18:42:48;8.10;;;5.80;;
38611;SDS011;24368;52.156;20.788;2023-01-15T18:48:08;6.70;;;5.00;;
38611;SDS011;24368;52.156;20.788;2023-01-15T18:53:11;4.70;;;4.00;;
38611;SDS011;24368;52.156;20.788;2023-01-15T18:58:13;5.90;;;3.50;;
38611;SDS011;24368;52.156;20.788;2023-01-15T19:03:15;4.60;;;3.30;;
38611;SDS011;24368;52.156;20.788;2023-01-15T19:08:17;2.90;;;2.10;;
38611;SDS011;24368;52.156;20.788;2023-01-15T19:13:19;2.70;;;1.50;;
38611;SDS011;24368;52.156;20.788;2023-01-15T19:18:21;2.20;;;1.90;;
38611;SDS011;24368;52.156;20.788;2023-01-15T19:23:42;2.70;;;2.20;;
38611;SDS011;24368;52.156;20.788;2023-01-15T19:28:43;4.70;;;2.70;;
38611;SDS011;24368;52.156;20.788;2023-01-15T19:33:45;2.80;;;2.20;;
38611;SDS011;24368;52.156;20.788;2023-01-15T19:38:47;3.60;;;2.90;;
38611;SDS011;24368;52.156;20.788;2023-01-15T19:43:49;3.70;;;2.80;;
38611;SDS011;24368;52.156;20.788;2023-01-15T19:49:13;7.10;;;4.50;;
38611;SDS011;24368;52.156;20.788;2023-01-15T19:54:37;5.60;;;4.80;;
38611;SDS011;24368;52.156;20.788;2023-01-15T19:59:57;5.30;;;4.40;;
38611;SDS011;24368;52.156;20.788;2023-01-15T20:04:59;6.00;;;4.60;;
38611;SDS011;24368;52.156;20.788;2023-01-15T20:10:01;6.00;;;5.40;;
38611;SDS011;24368;52.156;20.788;2023-01-15T20:15:04;7.30;;;6.30;;
38611;SDS011;24368;52.156;20.788;2023-01-15T20:20:08;8.90;;;8.00;;
38611;SDS011;24368;52.156;20.788;2023-01-15T20:25:11;9.30;;;7.60;;
38611;SDS011;24368;52.156;20.788;2023-01-15T20:30:13;8.60;;;7.30;;
38611;SDS011;24368;52.156;20.788;2023-01-15T20:35:18;8.70;;;7.80;;
38611;SDS011;24368;52.156;20.788;2023-01-15T20:40:25;8.00;;;6.40;;
38611;SDS011;24368;52.156;20.788;2023-01-15T20:45:27;7.40;;;6.70;;
38611;SDS011;24368;52.156;20.788;2023-01-15T20:50:30;7.00;;;5.90;;
38611;SDS011;24368;52.156;20.788;2023-01-15T20:55:34;6.10;;;5.50;;
38611;SDS011;24368;52.156;20.788;2023-01-15T21:00:37;5.50;;;4.30;;
38611;SDS011;24368;52.156;20.788;2023-01-15T21:05:39;6.00;;;4.90;;
38611;SDS011;24368;52.156;20.788;2023-01-15T21:10:41;4.60;;;4.10;;
38611;SDS011;24368;52.156;20.788;2023-01-15T21:15:42;4.90;;;4.10;;
38611;SDS011;24368;52.156;20.788;2023-01-15T21:20:44;5.10;;;4.00;;
38611;SDS011;24368;52.156;20.788;2023-01-15T21:25:46;4.00;;;3.60;;
38611;SDS011;24368;52.156;20.788;2023-01-15T21:30:49;5.20;;;4.70;;
38611;SDS011;24368;52.156;20.788;2023-01-15T21:35:53;4.70;;;3.50;;
38611;SDS011;24368;52.156;20.788;2023-01-15T21:40:55;6.20;;;4.70;;
38611;SDS011;24368;52.156;20.788;2023-01-15T21:46:03;4.10;;;3.70;;
38611;SDS011;24368;52.156;20.788;2023-01-15T21:51:06;5.30;;;3.90;;
38611;SDS011;24368;52.156;20.788;2023-01-15T21:56:08;4.40;;;3.50;;
38611;SDS011;24368;52.156;20.788;2023-01-15T22:01:10;4.90;;;3.70;;
38611;SDS011;24368;52.156;20.788;2023-01-15T22:06:13;4.30;;;3.90;;
38611;SDS011;24368;52.156;20.788;2023-01-15T22:11:15;3.70;;;3.20;;
38611;SDS011;24368;52.156;20.788;2023-01-15T22:16:16;5.60;;;4.00;;
38611;SDS011;24368;52.156;20.788;2023-01-15T22:21:19;4.10;;;3.70;;
38611;SDS011;24368;52.156;20.788;2023-01-15T22:26:21;4.80;;;3.60;;
38611;SDS011;24368;52.156;20.788;2023-01-15T22:31:26;5.50;;;3.70;;
38611;SDS011;24368;52.156;20.788;2023-01-15T22:36:28;3.70;;;3.40;;
38611;SDS011;24368;52.156;20.788;2023-01-15T22:41:30;4.20;;;3.50;;
38611;SDS011;24368;52.156;20.788;2023-01-15T22:46:50;4.30;;;3.50;;
38611;SDS011;24368;52.156;20.788;2023-01-15T22:51:54;4.70;;;3.90;;
38611;SDS011;24368;52.156;20.788;2023-01-15T22:56:57;4.40;;;3.60;;
38611;SDS011;24368;52.156;20.788;2023-01-15T23:01:59;5.80;;;3.80;;
38611;SDS011;24368;52.156;20.788;2023-01-15T23:07:01;5.50;;;3.80;;
38611;SDS011;24368;52.156;20.788;2023-01-15T23:12:03;4.50;;;3.40;;
38611;SDS011;24368;52.156;20.788;2023-01-15T23:17:05;5.30;;;3.80;;
38611;SDS011;24368;52.156;20.788;2023-01-15T23:22:06;4.50;;;3.50;;
38611;SDS011;24368;52.156;20.788;2023-01-15T23:27:08;5.10;;;4.40;;
38611;SDS011;24368;52.156;20.788;2023-01-15T23:32:10;6.50;;;4.20;;
38611;SDS011;24368;52.156;20.788;2023-01-15T23:37:12;4.80;;;4.40;;
38611;SDS011;24368;52.156;20.788;2023-01-15T23:42:14;4.40;;;3.80;;
38611;SDS011;24368;52.156;20.788;2023-01-15T23:47:34;5.00;;;3.90;;
38611;SDS011;24368;52.156;20.788;2023-01-15T23:52:36;7.10;;;3.90;;
38611;SDS011;24368;52.156;20.788;2023-01-15T23:57:38;3.90;;;3.50;;
